Time;durP1;ratioP1;P1;durP2;ratioP2;P2;SDS_P1;SDS_P2;PMS_P1;PMS_P2;Temp;Humidity;BMP_temperature;BMP_pressure;BME280_temperature;BME280_humidity;BME280_pressure;Samples;Min_cycle;Max_cycle;Signal;HPM_P1;HPM_P2
2022/06/30 00:00:19;;;;;;;41.97;24.13;;;;;;;;;;5053087;28;20052;-87
2022/06/30 00:02:46;;;;;;;52.53;27.35;;;;;;;;;;5053936;28;20508;-87
2022/06/30 00:05:14;;;;;;;38.13;23.98;;;;;;;;;;5052815;28;20557;-86
2022/06/30 00:07:42;;;;;;;31.20;22.52;;;;;;;;;;5052954;28;20147;-87
2022/06/30 00:10:11;;;;;;;35.55;23.65;;;;;;;;;;5053364;28;20061;-86
2022/06/30 00:12:39;;;;;;;34.72;23.25;;;;;;;;;;5053045;28;20068;-87
2022/06/30 00:15:06;;;;;;;34.33;23.13;;;;;;;;;;5053845;28;20061;-87
2022/06/30 00:17:34;;;;;;;31.83;22.58;;;;;;;;;;5052928;28;20049;-87
2022/06/30 00:20:01;;;;;;;39.65;22.02;;;;;;;;;;5052902;28;20536;-87
2022/06/30 00:22:28;;;;;;;43.25;24.90;;;;;;;;;;5052992;28;20481;-87
2022/06/30 00:24:56;;;;;;;38.72;25.17;;;;;;;;;;5052488;28;20049;-87
2022/06/30 00:27:23;;;;;;;37.25;24.17;;;;;;;;;;5052900;28;20048;-87
2022/06/30 00:29:50;;;;;;;32.97;23.25;;;;;;;;;;5052691;28;20084;-87
2022/06/30 00:32:18;;;;;;;36.05;24.05;;;;;;;;;;5052441;28;20048;-87
2022/06/30 00:34:45;;;;;;;31.88;23.00;;;;;;;;;;5052615;28;20075;-87
2022/06/30 00:37:12;;;;;;;29.67;22.52;;;;;;;;;;5052420;28;20045;-87
2022/06/30 00:39:39;;;;;;;31.58;22.35;;;;;;;;;;5052008;28;20061;-87
2022/06/30 00:42:07;;;;;;;27.05;20.75;;;;;;;;;;5052471;28;20045;-87
2022/06/30 00:44:34;;;;;;;28.85;21.17;;;;;;;;;;5052536;28;20394;-86
2022/06/30 00:47:05;;;;;;;28.40;19.67;;;;;;;;;;5052434;28;20044;-86
2022/06/30 00:49:32;;;;;;;23.98;18.92;;;;;;;;;;5053320;28;20053;-86
2022/06/30 00:52:02;;;;;;;25.17;19.52;;;;;;;;;;5053207;28;20091;-87
2022/06/30 00:54:30;;;;;;;26.25;19.45;;;;;;;;;;5051970;28;20080;-87
2022/06/30 00:56:58;;;;;;;23.23;18.17;;;;;;;;;;5053237;28;20051;-87
2022/06/30 00:59:26;;;;;;;29.45;21.80;;;;;;;;;;5053244;28;20423;-87
2022/06/30 01:01:54;;;;;;;34.67;21.05;;;;;;;;;;5052587;28;20055;-87
2022/06/30 01:04:21;;;;;;;28.58;20.48;;;;;;;;;;5052447;28;20103;-86
2022/06/30 01:06:49;;;;;;;27.98;20.30;;;;;;;;;;5035661;28;20132;-86
2022/06/30 01:12:41;;;;;;;26.70;20.70;;;;;;;;;;5052796;28;20092;-87
2022/06/30 01:14:51;;;;;;;25.15;19.98;;;;;;;;;;5052703;28;20478;-86
2022/06/30 01:17:18;;;;;;;29.40;21.08;;;;;;;;;;5052776;28;20051;-87
2022/06/30 01:19:52;;;;;;;32.10;21.38;;;;;;;;;;5052255;28;20144;-87
2022/06/30 01:22:20;;;;;;;26.75;19.77;;;;;;;;;;5051916;28;20557;-87
2022/06/30 01:24:47;;;;;;;28.67;21.73;;;;;;;;;;5051785;28;20080;-87
2022/06/30 01:27:14;;;;;;;46.30;25.23;;;;;;;;;;5051906;28;20092;-86
2022/06/30 01:29:42;;;;;;;36.53;23.83;;;;;;;;;;5051881;28;20505;-87
2022/06/30 01:32:09;;;;;;;33.22;23.45;;;;;;;;;;5051898;28;20060;-87
2022/06/30 01:34:36;;;;;;;29.95;23.17;;;;;;;;;;5052020;28;20045;-87
2022/06/30 01:37:04;;;;;;;35.80;23.33;;;;;;;;;;5051724;28;20049;-86
2022/06/30 01:39:31;;;;;;;36.97;23.95;;;;;;;;;;5052583;28;20056;-87
2022/06/30 01:41:58;;;;;;;36.28;24.17;;;;;;;;;;5051807;28;20045;-86
2022/06/30 01:44:26;;;;;;;42.25;26.23;;;;;;;;;;5051704;28;20144;-86
2022/06/30 01:46:53;;;;;;;41.92;25.70;;;;;;;;;;5051579;28;20049;-86
2022/06/30 01:49:21;;;;;;;40.90;25.35;;;;;;;;;;5051593;28;20497;-87
2022/06/30 01:51:48;;;;;;;42.55;27.30;;;;;;;;;;5052734;28;20045;-86
2022/06/30 01:54:15;;;;;;;43.15;24.88;;;;;;;;;;5051616;28;20045;-87
2022/06/30 01:56:43;;;;;;;43.55;26.00;;;;;;;;;;5051540;28;20055;-87
2022/06/30 01:59:11;;;;;;;52.78;28.13;;;;;;;;;;5051765;28;20073;-86
2022/06/30 02:01:38;;;;;;;40.30;26.27;;;;;;;;;;5051862;28;20055;-86
2022/06/30 02:06:52;;;;;;;44.70;27.33;;;;;;;;;;5052552;28;20073;-86
2022/06/30 02:09:19;;;;;;;37.60;26.23;;;;;;;;;;5051032;28;20057;-86
2022/06/30 02:11:46;;;;;;;35.13;24.63;;;;;;;;;;5052644;28;20136;-87
2022/06/30 02:14:14;;;;;;;42.65;26.27;;;;;;;;;;5053831;28;20139;-87
2022/06/30 02:16:41;;;;;;;40.83;25.40;;;;;;;;;;5056114;28;20096;-86
2022/06/30 02:19:08;;;;;;;39.50;26.75;;;;;;;;;;5054945;28;20107;-86
2022/06/30 02:21:35;;;;;;;37.75;25.60;;;;;;;;;;5056113;28;20053;-86
2022/06/30 02:24:03;;;;;;;39.42;26.05;;;;;;;;;;5054903;28;20100;-86
2022/06/30 02:26:30;;;;;;;37.72;24.33;;;;;;;;;;5055095;28;20053;-86
2022/06/30 02:28:57;;;;;;;44.05;27.05;;;;;;;;;;5054798;28;20088;-86
2022/06/30 02:31:24;;;;;;;38.75;25.45;;;;;;;;;;5055110;28;20478;-87
2022/06/30 02:33:52;;;;;;;41.17;25.92;;;;;;;;;;5055736;28;20482;-87
2022/06/30 02:36:19;;;;;;;38.78;25.98;;;;;;;;;;5055962;28;20080;-86
2022/06/30 02:38:46;;;;;;;35.45;25.30;;;;;;;;;;5054605;28;20052;-86
2022/06/30 02:41:13;;;;;;;34.83;25.83;;;;;;;;;;5054724;28;20049;-86
2022/06/30 02:43:40;;;;;;;37.53;26.38;;;;;;;;;;5054618;28;20148;-86
2022/06/30 02:46:08;;;;;;;39.85;25.88;;;;;;;;;;5054197;28;20049;-86
2022/06/30 02:48:35;;;;;;;37.67;25.55;;;;;;;;;;5055564;28;20520;-86
2022/06/30 02:51:02;;;;;;;35.55;24.42;;;;;;;;;;5054777;28;20393;-86
2022/06/30 02:53:29;;;;;;;37.92;25.52;;;;;;;;;;5055798;28;20048;-86
2022/06/30 02:55:57;;;;;;;35.78;24.65;;;;;;;;;;5054381;28;20080;-86
2022/06/30 02:58:24;;;;;;;38.63;26.85;;;;;;;;;;5054624;28;20061;-86
2022/06/30 03:00:51;;;;;;;55.88;31.17;;;;;;;;;;5054324;28;20591;-86
2022/06/30 03:03:18;;;;;;;46.45;27.00;;;;;;;;;;5054204;28;20128;-86
2022/06/30 03:05:45;;;;;;;42.58;28.35;;;;;;;;;;5055148;28;20077;-86
2022/06/30 03:08:13;;;;;;;39.97;27.02;;;;;;;;;;5054265;28;20088;-86
2022/06/30 03:10:40;;;;;;;43.55;27.20;;;;;;;;;;5055018;28;20144;-86
2022/06/30 03:13:07;;;;;;;45.25;28.55;;;;;;;;;;5054007;28;20045;-86
2022/06/30 03:15:34;;;;;;;39.25;27.27;;;;;;;;;;5053992;28;20136;-86
2022/06/30 03:18:01;;;;;;;44.72;26.48;;;;;;;;;;5053888;28;20076;-86
2022/06/30 03:20:29;;;;;;;38.53;24.15;;;;;;;;;;5054175;28;20136;-87
2022/06/30 03:22:56;;;;;;;38.30;26.50;;;;;;;;;;5054089;28;20072;-87
2022/06/30 03:25:23;;;;;;;43.42;27.75;;;;;;;;;;5052768;28;20053;-86
2022/06/30 03:27:51;;;;;;;50.70;29.25;;;;;;;;;;5053667;28;20564;-86
2022/06/30 03:30:18;;;;;;;49.58;28.05;;;;;;;;;;5053872;28;20053;-86
2022/06/30 03:32:45;;;;;;;39.83;26.83;;;;;;;;;;5053748;28;20156;-87
2022/06/30 03:35:12;;;;;;;39.08;27.65;;;;;;;;;;5053655;28;20108;-86
2022/06/30 03:37:39;;;;;;;44.40;27.55;;;;;;;;;;5054676;28;20068;-87
2022/06/30 03:40:07;;;;;;;47.17;28.67;;;;;;;;;;5053191;28;20088;-87
2022/06/30 03:42:34;;;;;;;35.30;25.70;;;;;;;;;;5054615;28;20045;-86
2022/06/30 03:45:01;;;;;;;38.33;27.42;;;;;;;;;;5053703;28;20045;-86
2022/06/30 03:47:29;;;;;;;35.25;26.15;;;;;;;;;;5054628;28;20470;-86
2022/06/30 03:49:56;;;;;;;39.10;26.45;;;;;;;;;;5053414;28;20458;-86
2022/06/30 03:52:31;;;;;;;39.88;28.23;;;;;;;;;;5053225;28;20124;-86
2022/06/30 03:54:58;;;;;;;37.53;27.90;;;;;;;;;;5054069;28;20080;-86
2022/06/30 03:57:26;;;;;;;36.75;26.42;;;;;;;;;;5054240;28;20045;-86
2022/06/30 03:59:53;;;;;;;38.20;26.70;;;;;;;;;;5053170;28;20144;-86
2022/06/30 04:02:20;;;;;;;39.97;26.92;;;;;;;;;;5053468;28;20051;-87
2022/06/30 04:04:47;;;;;;;35.70;26.10;;;;;;;;;;5053026;28;20049;-86
2022/06/30 04:07:14;;;;;;;43.75;27.85;;;;;;;;;;5053202;28;20054;-86
2022/06/30 04:09:42;;;;;;;40.85;27.25;;;;;;;;;;5053803;28;20140;-86
2022/06/30 04:12:10;;;;;;;37.10;26.80;;;;;;;;;;5052847;28;20049;-86
2022/06/30 04:14:38;;;;;;;35.38;25.90;;;;;;;;;;5052659;28;20051;-87
2022/06/30 04:17:05;;;;;;;47.03;28.00;;;;;;;;;;5053840;28;20055;-86
2022/06/30 04:19:32;;;;;;;52.53;31.90;;;;;;;;;;5052928;28;20469;-86
2022/06/30 04:21:59;;;;;;;41.28;27.85;;;;;;;;;;5052630;28;20131;-86
2022/06/30 04:24:27;;;;;;;48.03;30.92;;;;;;;;;;5052512;28;20049;-86
2022/06/30 04:26:54;;;;;;;43.72;29.50;;;;;;;;;;5052467;28;20045;-86
2022/06/30 04:29:21;;;;;;;38.53;28.27;;;;;;;;;;5052573;28;20051;-86
2022/06/30 04:34:34;;;;;;;39.28;28.73;;;;;;;;;;5053484;28;20072;-86
2022/06/30 04:37:01;;;;;;;45.75;30.20;;;;;;;;;;5052165;28;20084;-86
2022/06/30 04:39:30;;;;;;;48.70;32.40;;;;;;;;;;5052102;28;20048;-86
2022/06/30 04:41:57;;;;;;;44.45;29.95;;;;;;;;;;5053398;28;20564;-87
2022/06/30 04:44:26;;;;;;;47.83;31.77;;;;;;;;;;5053403;28;20084;-86
2022/06/30 04:46:54;;;;;;;47.67;29.55;;;;;;;;;;5052271;28;20128;-86
2022/06/30 04:49:21;;;;;;;39.20;29.13;;;;;;;;;;5052169;28;20053;-86
2022/06/30 04:51:48;;;;;;;40.20;29.67;;;;;;;;;;5052249;28;20048;-85
2022/06/30 04:54:15;;;;;;;43.67;29.27;;;;;;;;;;5052119;28;20401;-86
2022/06/30 04:56:43;;;;;;;40.72;29.67;;;;;;;;;;5052218;28;20099;-86
2022/06/30 04:59:11;;;;;;;41.97;29.15;;;;;;;;;;5052283;28;20049;-85
2022/06/30 05:01:38;;;;;;;52.03;32.63;;;;;;;;;;5052063;28;20080;-86
2022/06/30 05:04:05;;;;;;;47.67;31.42;;;;;;;;;;5052872;28;20076;-86
2022/06/30 05:06:32;;;;;;;51.92;33.72;;;;;;;;;;5052049;28;20049;-86
2022/06/30 05:09:02;;;;;;;51.63;34.85;;;;;;;;;;5052658;28;20092;-86
2022/06/30 05:11:29;;;;;;;49.60;35.53;;;;;;;;;;5052886;28;20091;-85
2022/06/30 05:13:56;;;;;;;59.08;37.45;;;;;;;;;;5051723;28;20485;-85
2022/06/30 05:16:23;;;;;;;49.30;35.85;;;;;;;;;;5052131;28;20091;-85
2022/06/30 05:18:50;;;;;;;46.17;32.17;;;;;;;;;;5053244;28;20053;-85
2022/06/30 05:21:20;;;;;;;51.72;33.50;;;;;;;;;;5053161;28;20057;-86
2022/06/30 05:26:28;;;;;;;47.13;32.10;;;;;;;;;;5052007;28;20394;-85
2022/06/30 05:26:36;;;;;;;43.70;30.92;;;;;;;;;;5052830;28;20557;-86
2022/06/30 05:29:06;;;;;;;41.83;30.92;;;;;;;;;;5052864;28;20053;-85
2022/06/30 05:31:33;;;;;;;48.13;31.52;;;;;;;;;;5051959;28;20087;-86
2022/06/30 05:34:00;;;;;;;41.05;29.20;;;;;;;;;;5052692;28;20099;-86
2022/06/30 05:36:27;;;;;;;39.95;30.75;;;;;;;;;;5051713;28;20264;-86
2022/06/30 05:38:54;;;;;;;45.25;30.85;;;;;;;;;;5051054;28;20047;-86
2022/06/30 05:41:22;;;;;;;47.58;30.33;;;;;;;;;;5051510;28;20053;-85
2022/06/30 05:43:52;;;;;;;43.90;31.55;;;;;;;;;;5051627;28;20131;-85
2022/06/30 05:46:19;;;;;;;41.42;29.15;;;;;;;;;;5052874;28;20468;-85
2022/06/30 05:48:51;;;;;;;38.38;27.23;;;;;;;;;;5052501;28;20096;-86
2022/06/30 05:51:19;;;;;;;38.72;30.27;;;;;;;;;;5055422;28;20148;-86
2022/06/30 05:53:49;;;;;;;33.33;25.88;;;;;;;;;;5055573;28;20049;-86
2022/06/30 05:56:18;;;;;;;39.53;29.10;;;;;;;;;;5055392;28;20084;-86
2022/06/30 05:58:45;;;;;;;35.97;27.85;;;;;;;;;;5055410;28;20493;-86
2022/06/30 06:01:13;;;;;;;34.72;26.73;;;;;;;;;;5055531;28;20404;-85
2022/06/30 06:03:40;;;;;;;39.45;26.38;;;;;;;;;;5054973;28;20053;-85
2022/06/30 06:06:09;;;;;;;43.08;29.15;;;;;;;;;;5055020;28;20099;-86
2022/06/30 06:08:40;;;;;;;31.33;25.95;;;;;;;;;;5055439;28;20545;-86
2022/06/30 06:11:09;;;;;;;36.58;27.35;;;;;;;;;;5054815;28;20056;-86
2022/06/30 06:13:36;;;;;;;37.10;28.58;;;;;;;;;;5056018;28;20462;-85
2022/06/30 06:16:04;;;;;;;33.10;25.48;;;;;;;;;;5054842;28;20056;-86
2022/06/30 06:18:31;;;;;;;31.42;26.52;;;;;;;;;;5055696;28;20080;-86
2022/06/30 06:20:58;;;;;;;37.70;27.58;;;;;;;;;;5056109;28;20502;-86
2022/06/30 06:23:45;;;;;;;30.10;26.38;;;;;;;;;;5056124;28;20045;-86
2022/06/30 06:26:12;;;;;;;30.05;24.42;;;;;;;;;;5056000;28;20052;-86
2022/06/30 06:31:28;;;;;;;34.95;26.25;;;;;;;;;;5055669;28;20479;-85
2022/06/30 06:33:55;;;;;;;32.70;25.25;;;;;;;;;;5054680;28;20084;-86
2022/06/30 06:36:22;;;;;;;33.65;26.85;;;;;;;;;;5054730;28;20053;-86
2022/06/30 06:38:54;;;;;;;31.98;26.63;;;;;;;;;;5054375;28;20248;-86
2022/06/30 06:41:21;;;;;;;34.50;26.42;;;;;;;;;;5054793;28;20076;-85
2022/06/30 06:43:49;;;;;;;27.33;23.58;;;;;;;;;;5054517;28;20449;-86
2022/06/30 06:46:17;;;;;;;32.13;25.63;;;;;;;;;;5054458;28;20128;-86
2022/06/30 06:48:45;;;;;;;29.33;25.13;;;;;;;;;;5054359;28;20555;-86
2022/06/30 06:51:12;;;;;;;32.22;24.02;;;;;;;;;;5055325;28;20088;-86
2022/06/30 06:53:39;;;;;;;29.80;24.23;;;;;;;;;;5055431;28;20124;-86
2022/06/30 06:56:06;;;;;;;33.38;24.83;;;;;;;;;;5053806;28;20063;-85
2022/06/30 06:58:34;;;;;;;32.35;25.88;;;;;;;;;;5054623;28;20056;-86
2022/06/30 07:01:01;;;;;;;29.77;23.55;;;;;;;;;;5053094;28;20325;-86
2022/06/30 07:03:29;;;;;;;26.27;21.73;;;;;;;;;;5055466;28;20045;-87
2022/06/30 07:05:57;;;;;;;26.23;22.25;;;;;;;;;;5054112;28;20083;-86
2022/06/30 07:08:24;;;;;;;26.45;21.85;;;;;;;;;;5054331;28;20144;-86
2022/06/30 07:10:52;;;;;;;23.70;20.33;;;;;;;;;;5053852;28;20053;-87
2022/06/30 07:13:21;;;;;;;21.23;19.08;;;;;;;;;;5054321;28;20049;-87
2022/06/30 07:15:51;;;;;;;20.85;18.40;;;;;;;;;;5054158;28;20132;-86
2022/06/30 07:18:18;;;;;;;24.98;20.58;;;;;;;;;;5055083;28;20053;-86
2022/06/30 07:20:49;;;;;;;23.17;17.60;;;;;;;;;;5054096;28;20053;-86
2022/06/30 07:23:18;;;;;;;23.67;17.90;;;;;;;;;;5053827;28;20516;-86
2022/06/30 07:25:56;;;;;;;21.92;17.85;;;;;;;;;;5054183;28;20045;-86
2022/06/30 07:28:23;;;;;;;22.13;17.25;;;;;;;;;;5055116;28;20136;-85
2022/06/30 07:31:12;;;;;;;20.38;17.70;;;;;;;;;;5053957;28;20051;-86
2022/06/30 07:33:40;;;;;;;24.75;16.67;;;;;;;;;;5053779;28;20143;-84
2022/06/30 07:36:08;;;;;;;24.52;18.50;;;;;;;;;;5053386;28;20069;-86
2022/06/30 07:38:35;;;;;;;19.13;17.05;;;;;;;;;;5052911;28;20057;-86
2022/06/30 07:41:02;;;;;;;18.00;16.10;;;;;;;;;;5054458;28;20048;-86
2022/06/30 07:43:29;;;;;;;18.02;15.40;;;;;;;;;;5053415;28;20361;-85
2022/06/30 07:45:57;;;;;;;17.35;15.50;;;;;;;;;;5052766;28;20049;-85
2022/06/30 07:48:24;;;;;;;16.92;14.48;;;;;;;;;;5053199;28;20049;-87
2022/06/30 07:50:51;;;;;;;16.67;14.57;;;;;;;;;;5054147;28;20053;-86
2022/06/30 07:53:18;;;;;;;14.90;13.35;;;;;;;;;;5054368;28;20053;-88
2022/06/30 07:55:45;;;;;;;13.88;12.27;;;;;;;;;;5053618;28;20073;-86
2022/06/30 07:58:13;;;;;;;14.75;12.45;;;;;;;;;;5053944;28;20143;-86
2022/06/30 08:00:40;;;;;;;11.98;10.77;;;;;;;;;;5052853;28;20469;-85
2022/06/30 08:03:07;;;;;;;12.65;11.18;;;;;;;;;;5053733;28;20049;-87
2022/06/30 08:05:34;;;;;;;12.85;11.48;;;;;;;;;;5052533;28;20086;-87
2022/06/30 08:08:02;;;;;;;13.77;11.77;;;;;;;;;;5052591;28;20076;-86
2022/06/30 08:10:29;;;;;;;12.88;11.55;;;;;;;;;;5052399;28;20052;-85
2022/06/30 08:12:56;;;;;;;13.07;11.10;;;;;;;;;;5051650;28;20549;-85
2022/06/30 08:15:23;;;;;;;14.50;11.88;;;;;;;;;;5052146;28;20128;-85
2022/06/30 08:17:51;;;;;;;11.52;10.40;;;;;;;;;;5052285;28;20464;-84
2022/06/30 08:20:18;;;;;;;11.05;9.95;;;;;;;;;;5053635;28;20072;-85
2022/06/30 08:22:45;;;;;;;10.70;9.70;;;;;;;;;;5052206;28;20081;-86
2022/06/30 08:25:12;;;;;;;13.77;10.65;;;;;;;;;;5053358;28;20178;-86
2022/06/30 08:27:39;;;;;;;14.68;10.55;;;;;;;;;;5053248;28;20056;-88
2022/06/30 08:30:07;;;;;;;10.98;9.70;;;;;;;;;;5052371;28;20136;-84
2022/06/30 08:32:34;;;;;;;10.43;9.52;;;;;;;;;;5053035;28;20640;-86
2022/06/30 08:35:01;;;;;;;9.85;9.02;;;;;;;;;;5052965;28;20104;-86
2022/06/30 08:37:28;;;;;;;11.13;8.68;;;;;;;;;;5052088;28;20553;-87
2022/06/30 08:42:42;;;;;;;8.55;7.80;;;;;;;;;;5053483;28;20048;-85
2022/06/30 08:45:19;;;;;;;12.30;9.43;;;;;;;;;;5051957;28;20524;-86
2022/06/30 08:47:47;;;;;;;12.23;9.25;;;;;;;;;;5051902;28;20053;-86
2022/06/30 08:50:15;;;;;;;10.77;8.98;;;;;;;;;;5053006;28;20088;-88
2022/06/30 08:52:50;;;;;;;10.68;7.45;;;;;;;;;;5051623;28;20045;-87
2022/06/30 08:55:17;;;;;;;8.60;7.80;;;;;;;;;;5052009;28;20052;-86
2022/06/30 08:57:46;;;;;;;9.30;8.30;;;;;;;;;;5051911;28;20053;-85
2022/06/30 09:00:14;;;;;;;8.90;7.65;;;;;;;;;;5052229;28;20478;-86
2022/06/30 09:02:42;;;;;;;9.15;8.25;;;;;;;;;;5051956;28;20053;-86
2022/06/30 09:05:09;;;;;;;9.27;8.13;;;;;;;;;;5051509;28;20096;-87
2022/06/30 09:07:37;;;;;;;10.13;8.18;;;;;;;;;;5052060;28;20087;-86
2022/06/30 09:10:05;;;;;;;8.02;7.22;;;;;;;;;;5051363;28;20116;-88
2022/06/30 09:12:33;;;;;;;8.77;7.38;;;;;;;;;;5051563;28;20049;-87
2022/06/30 09:15:00;;;;;;;7.45;6.15;;;;;;;;;;5051446;28;20049;-85
2022/06/30 09:17:28;;;;;;;9.35;7.05;;;;;;;;;;5051610;28;20080;-86
2022/06/30 09:20:04;;;;;;;10.20;8.80;;;;;;;;;;5052458;28;20079;-86
2022/06/30 09:22:34;;;;;;;10.98;8.43;;;;;;;;;;5052836;28;20108;-86
2022/06/30 09:25:05;;;;;;;9.05;8.15;;;;;;;;;;5051087;28;20409;-89
2022/06/30 09:27:37;;;;;;;12.50;8.15;;;;;;;;;;5051700;28;20560;-87
2022/06/30 09:30:08;;;;;;;8.27;7.32;;;;;;;;;;5052702;28;20111;-88
2022/06/30 09:32:48;;;;;;;7.28;6.57;;;;;;;;;;5051470;28;20132;-85
2022/06/30 09:35:16;;;;;;;7.97;7.07;;;;;;;;;;5051589;28;20099;-86
2022/06/30 09:37:44;;;;;;;7.55;6.82;;;;;;;;;;5052485;28;20497;-86
2022/06/30 09:40:12;;;;;;;6.30;5.80;;;;;;;;;;5050674;28;20088;-87
2022/06/30 09:42:48;;;;;;;8.48;6.85;;;;;;;;;;5052714;28;20056;-84
2022/06/30 09:45:42;;;;;;;9.00;8.30;;;;;;;;;;5052486;28;20103;-85
2022/06/30 09:48:10;;;;;;;11.27;7.63;;;;;;;;;;5051578;28;20053;-85
2022/06/30 09:50:38;;;;;;;10.55;8.20;;;;;;;;;;5051386;28;20448;-84
2022/06/30 09:53:10;;;;;;;8.60;6.43;;;;;;;;;;5052462;28;20053;-86
2022/06/30 09:55:43;;;;;;;6.93;6.22;;;;;;;;;;5051440;28;20145;-85
2022/06/30 09:58:11;;;;;;;6.30;5.80;;;;;;;;;;5052368;28;20048;-85
2022/06/30 10:00:49;;;;;;;7.03;6.28;;;;;;;;;;5051105;28;20059;-86
2022/06/30 10:03:17;;;;;;;8.00;6.80;;;;;;;;;;5051971;28;20390;-82
2022/06/30 10:05:45;;;;;;;7.03;6.43;;;;;;;;;;5051750;28;20473;-84
2022/06/30 10:08:13;;;;;;;7.90;6.82;;;;;;;;;;5052376;28;20059;-85
2022/06/30 10:10:41;;;;;;;7.45;6.70;;;;;;;;;;5050926;28;20141;-85
2022/06/30 10:13:16;;;;;;;7.30;6.43;;;;;;;;;;5050763;28;20115;-87
2022/06/30 10:15:53;;;;;;;6.45;5.88;;;;;;;;;;5051028;28;20080;-85
2022/06/30 10:18:21;;;;;;;6.63;5.95;;;;;;;;;;5051013;28;20065;-84
2022/06/30 10:20:49;;;;;;;11.38;8.02;;;;;;;;;;5050779;28;20041;-85
2022/06/30 10:23:19;;;;;;;8.50;7.13;;;;;;;;;;5051885;28;20390;-84
2022/06/30 10:25:48;;;;;;;9.35;6.80;;;;;;;;;;5043777;28;20091;-87
2022/06/30 10:28:22;;;;;;;6.90;6.13;;;;;;;;;;5051401;28;20541;-84
2022/06/30 10:31:06;;;;;;;8.50;6.45;;;;;;;;;;5051741;28;20139;-87
2022/06/30 10:33:38;;;;;;;8.05;6.07;;;;;;;;;;5034613;28;20052;-86
2022/06/30 10:36:13;;;;;;;6.78;5.80;;;;;;;;;;5053307;28;20052;-85
2022/06/30 10:38:46;;;;;;;5.72;5.32;;;;;;;;;;5054853;28;20080;-84
2022/06/30 10:41:15;;;;;;;6.75;5.32;;;;;;;;;;5054393;28;20076;-85
2022/06/30 10:44:01;;;;;;;7.18;5.43;;;;;;;;;;5055489;28;20119;-86
2022/06/30 10:46:28;;;;;;;7.07;5.75;;;;;;;;;;5054326;28;20080;-86
2022/06/30 10:48:56;;;;;;;7.10;6.43;;;;;;;;;;5054266;28;20516;-85
2022/06/30 10:51:23;;;;;;;9.10;6.53;;;;;;;;;;5054502;28;20077;-86
2022/06/30 10:53:55;;;;;;;7.95;6.47;;;;;;;;;;5054207;28;20049;-86
2022/06/30 10:56:25;;;;;;;6.90;6.18;;;;;;;;;;5037864;28;20049;-86
2022/06/30 10:59:10;;;;;;;6.47;5.60;;;;;;;;;;5054203;28;20056;-86
2022/06/30 11:01:41;;;;;;;7.00;6.22;;;;;;;;;;5054832;28;20045;-88
2022/06/30 11:04:11;;;;;;;8.68;7.25;;;;;;;;;;5054403;28;20045;-86
2022/06/30 11:06:56;;;;;;;9.35;7.70;;;;;;;;;;5054228;28;20049;-86
2022/06/30 11:09:42;;;;;;;8.85;7.13;;;;;;;;;;5053872;28;20080;-84
2022/06/30 11:12:10;;;;;;;9.95;7.57;;;;;;;;;;5053971;28;20049;-86
2022/06/30 11:14:37;;;;;;;10.55;8.10;;;;;;;;;;5053810;28;20053;-86
2022/06/30 11:17:14;;;;;;;10.15;7.80;;;;;;;;;;5054114;28;20482;-90
2022/06/30 11:19:41;;;;;;;8.38;6.93;;;;;;;;;;5055009;28;20060;-86
2022/06/30 11:22:14;;;;;;;13.68;7.28;;;;;;;;;;5054314;28;20088;-86
2022/06/30 11:24:43;;;;;;;10.40;6.90;;;;;;;;;;5053777;28;20413;-87
2022/06/30 11:27:25;;;;;;;8.48;6.32;;;;;;;;;;5054835;28;20573;-86
2022/06/30 11:30:00;;;;;;;10.27;6.80;;;;;;;;;;5046961;28;20073;-87
2022/06/30 11:32:27;;;;;;;7.88;7.10;;;;;;;;;;5054873;28;20056;-88
2022/06/30 11:34:55;;;;;;;7.85;6.70;;;;;;;;;;5053464;28;20128;-85
2022/06/30 11:37:23;;;;;;;14.52;6.93;;;;;;;;;;5054643;28;20065;-85
2022/06/30 11:39:57;;;;;;;7.63;6.10;;;;;;;;;;5053427;28;20072;-87
2022/06/30 11:42:24;;;;;;;7.82;6.50;;;;;;;;;;5053593;28;20049;-86
2022/06/30 11:44:52;;;;;;;8.00;6.63;;;;;;;;;;5053221;28;20114;-87
2022/06/30 11:47:21;;;;;;;8.55;6.45;;;;;;;;;;5052678;28;20045;-85
2022/06/30 11:49:49;;;;;;;8.60;6.53;;;;;;;;;;5054047;28;20497;-86
2022/06/30 11:52:23;;;;;;;8.55;6.78;;;;;;;;;;5053512;28;20136;-86
2022/06/30 11:54:54;;;;;;;6.82;6.18;;;;;;;;;;5054355;28;20049;-86
2022/06/30 11:57:23;;;;;;;10.32;5.85;;;;;;;;;;5036758;28;20049;-86
2022/06/30 11:59:55;;;;;;;8.13;5.50;;;;;;;;;;5053809;28;20049;-86
2022/06/30 12:02:22;;;;;;;7.63;6.85;;;;;;;;;;5053356;28;20123;-86
2022/06/30 12:04:57;;;;;;;8.18;6.22;;;;;;;;;;5053119;28;20052;-86
2022/06/30 12:07:25;;;;;;;10.77;6.85;;;;;;;;;;5053335;28;20065;-86
2022/06/30 12:09:54;;;;;;;9.00;6.43;;;;;;;;;;5053036;28;20501;-87
2022/06/30 12:12:32;;;;;;;7.45;6.70;;;;;;;;;;5052930;28;20045;-87
2022/06/30 12:15:00;;;;;;;7.53;6.20;;;;;;;;;;5053815;28;20053;-87
2022/06/30 12:17:32;;;;;;;8.32;5.80;;;;;;;;;;5053485;28;20493;-88
2022/06/30 12:20:00;;;;;;;9.18;6.05;;;;;;;;;;5053289;28;20502;-86
2022/06/30 12:22:27;;;;;;;6.93;6.05;;;;;;;;;;5052925;28;20119;-88
2022/06/30 12:24:54;;;;;;;7.05;6.05;;;;;;;;;;5052644;28;20053;-85
2022/06/30 12:27:29;;;;;;;7.22;6.53;;;;;;;;;;5052429;28;20160;-87
2022/06/30 12:30:00;;;;;;;6.97;6.28;;;;;;;;;;5053455;28;20078;-86
2022/06/30 12:32:29;;;;;;;7.80;5.80;;;;;;;;;;5052789;28;20037;-87
2022/06/30 12:35:05;;;;;;;11.02;6.45;;;;;;;;;;5052685;28;20053;-87
2022/06/30 12:37:33;;;;;;;8.88;5.80;;;;;;;;;;5052961;28;20072;-86
2022/06/30 12:40:02;;;;;;;9.82;5.90;;;;;;;;;;5052295;28;20139;-86
2022/06/30 12:42:39;;;;;;;10.07;6.20;;;;;;;;;;5052576;28;20525;-85
2022/06/30 12:45:06;;;;;;;7.70;6.35;;;;;;;;;;5052607;28;20049;-87
2022/06/30 12:47:35;;;;;;;12.05;6.10;;;;;;;;;;5052807;28;20617;-87
2022/06/30 12:50:19;;;;;;;7.78;5.45;;;;;;;;;;5053367;28;20080;-87
2022/06/30 12:52:46;;;;;;;9.77;6.22;;;;;;;;;;5053011;28;20068;-88
2022/06/30 12:55:13;;;;;;;10.35;6.22;;;;;;;;;;5052639;28;20140;-86
2022/06/30 12:57:41;;;;;;;7.97;5.30;;;;;;;;;;5052657;28;20045;-86
2022/06/30 13:00:08;;;;;;;6.22;5.63;;;;;;;;;;5053230;28;20087;-88
2022/06/30 13:02:37;;;;;;;9.45;5.53;;;;;;;;;;5052354;28;20453;-88
2022/06/30 13:05:04;;;;;;;7.60;5.80;;;;;;;;;;5051914;28;20080;-88
2022/06/30 13:07:31;;;;;;;13.13;5.28;;;;;;;;;;5053195;28;20069;-84
2022/06/30 13:09:58;;;;;;;8.50;5.35;;;;;;;;;;5052071;28;20061;-89
2022/06/30 13:12:25;;;;;;;9.48;6.10;;;;;;;;;;5052247;28;20053;-87
2022/06/30 13:14:53;;;;;;;7.60;5.70;;;;;;;;;;5052277;28;20068;-86
2022/06/30 13:17:20;;;;;;;8.20;4.95;;;;;;;;;;5052013;28;20158;-85
2022/06/30 13:19:47;;;;;;;8.60;5.15;;;;;;;;;;5044195;28;20128;-87
2022/06/30 13:22:14;;;;;;;9.55;5.40;;;;;;;;;;5052267;28;20240;-83
2022/06/30 13:24:42;;;;;;;6.78;5.00;;;;;;;;;;5051639;28;20052;-87
2022/06/30 13:27:12;;;;;;;6.88;5.35;;;;;;;;;;5052241;28;20080;-85
2022/06/30 13:29:40;;;;;;;7.63;4.43;;;;;;;;;;5052029;28;20532;-90
2022/06/30 13:32:07;;;;;;;8.30;5.07;;;;;;;;;;5052104;28;20061;-87
2022/06/30 13:34:34;;;;;;;6.18;4.38;;;;;;;;;;5051830;28;20086;-88
2022/06/30 13:37:01;;;;;;;7.38;4.75;;;;;;;;;;5052090;28;20103;-87
2022/06/30 13:39:28;;;;;;;7.10;4.93;;;;;;;;;;5051829;28;20442;-87
2022/06/30 13:41:55;;;;;;;6.85;4.93;;;;;;;;;;5052438;28;20075;-90
2022/06/30 13:44:23;;;;;;;5.18;4.72;;;;;;;;;;5051688;28;20080;-87
2022/06/30 13:46:51;;;;;;;5.93;5.00;;;;;;;;;;5051644;28;20049;-85
2022/06/30 13:49:18;;;;;;;5.18;4.70;;;;;;;;;;5051901;28;20053;-86
2022/06/30 13:51:45;;;;;;;7.20;5.10;;;;;;;;;;5043717;28;20079;-87
2022/06/30 13:54:12;;;;;;;7.00;4.30;;;;;;;;;;5051503;28;20056;-86
2022/06/30 13:56:40;;;;;;;8.23;4.40;;;;;;;;;;5051933;28;20056;-86
2022/06/30 13:59:07;;;;;;;4.40;4.10;;;;;;;;;;5051929;28;20056;-86
2022/06/30 14:01:35;;;;;;;7.00;4.88;;;;;;;;;;5051838;28;20093;-91
2022/06/30 14:04:02;;;;;;;6.95;4.32;;;;;;;;;;5051831;28;20147;-88
2022/06/30 14:06:29;;;;;;;5.43;4.55;;;;;;;;;;5051744;28;20076;-86
2022/06/30 14:08:56;;;;;;;6.47;4.57;;;;;;;;;;5051870;28;20107;-88
2022/06/30 14:11:24;;;;;;;5.68;4.22;;;;;;;;;;5055206;28;20045;-87
2022/06/30 14:13:51;;;;;;;5.13;4.57;;;;;;;;;;5055305;28;20068;-87
2022/06/30 14:16:18;;;;;;;8.70;4.47;;;;;;;;;;5054828;28;20524;-87
2022/06/30 14:18:45;;;;;;;5.93;3.97;;;;;;;;;;5055096;28;20057;-84
2022/06/30 14:21:13;;;;;;;5.32;4.57;;;;;;;;;;5055240;28;20489;-86
2022/06/30 14:23:40;;;;;;;7.00;3.90;;;;;;;;;;5055086;28;20104;-86
2022/06/30 14:26:07;;;;;;;6.20;4.38;;;;;;;;;;5054697;28;20077;-85
2022/06/30 14:28:34;;;;;;;7.50;4.18;;;;;;;;;;5055165;28;20080;-88
2022/06/30 14:31:01;;;;;;;6.30;4.60;;;;;;;;;;5056103;28;20052;-86
2022/06/30 14:33:29;;;;;;;7.43;4.60;;;;;;;;;;5054829;28;20136;-86
2022/06/30 14:35:56;;;;;;;5.97;4.60;;;;;;;;;;5055706;28;20068;-87
2022/06/30 14:38:23;;;;;;;5.05;4.15;;;;;;;;;;5054650;28;20425;-88
2022/06/30 14:40:51;;;;;;;5.55;4.47;;;;;;;;;;5054773;28;20147;-87
2022/06/30 14:43:19;;;;;;;4.70;4.28;;;;;;;;;;5054942;28;20084;-87
2022/06/30 14:45:46;;;;;;;4.57;4.15;;;;;;;;;;5054435;28;20049;-87
2022/06/30 14:48:13;;;;;;;5.82;4.43;;;;;;;;;;5054828;28;20053;-86